createdAt,value
2023-03-29T00:02:59.523Z,-5.67
2023-03-29T00:08:04.584Z,-5.74
2023-03-29T00:13:07.797Z,-5.82
2023-03-29T00:18:10.702Z,-5.89
2023-03-29T00:23:13.604Z,-5.94
2023-03-29T00:28:16.612Z,-5.94
2023-03-29T00:33:20.928Z,-5.86
2023-03-29T00:38:23.855Z,-5.72
2023-03-29T00:43:27.274Z,-5.56
2023-03-29T00:48:31.457Z,-5.46
2023-03-29T00:53:38.609Z,-5.44
2023-03-29T00:58:52.168Z,-5.45
2023-03-29T01:04:20.980Z,-5.49
2023-03-29T01:09:27.268Z,-5.55
2023-03-29T01:14:46.245Z,-5.62
2023-03-29T01:19:58.352Z,-5.70
2023-03-29T01:25:26.880Z,-5.78
2023-03-29T01:30:36.461Z,-5.83
2023-03-29T01:36:00.060Z,-5.84
2023-03-29T01:41:05.449Z,-5.76
2023-03-29T01:46:32.003Z,-5.64
2023-03-29T01:51:49.485Z,-5.56
2023-03-29T01:56:53.908Z,-5.54
2023-03-29T02:02:05.029Z,-5.60
2023-03-29T02:07:10.746Z,-5.70
2023-03-29T02:12:15.842Z,-5.85
2023-03-29T02:17:26.263Z,-5.97
2023-03-29T02:22:38.755Z,-6.10
2023-03-29T02:27:42.433Z,-6.16
2023-03-29T02:33:17.636Z,-6.15
2023-03-29T02:38:21.869Z,-6.01
2023-03-29T02:43:27.594Z,-5.84
2023-03-29T02:48:33.980Z,-5.75
2023-03-29T02:53:45.044Z,-5.76
2023-03-29T02:58:48.030Z,-5.78
2023-03-29T03:03:52.228Z,-5.85
2023-03-29T03:08:55.579Z,-5.93
2023-03-29T03:13:58.586Z,-5.96
2023-03-29T03:19:02.214Z,-5.96
2023-03-29T03:24:07.683Z,-5.90
2023-03-29T03:29:11.505Z,-5.81
2023-03-29T03:34:14.516Z,-5.77
2023-03-29T03:39:17.504Z,-5.81
2023-03-29T03:44:20.723Z,-5.86
2023-03-29T03:49:24.538Z,-5.90
2023-03-29T03:54:27.616Z,-5.89
2023-03-29T03:59:30.964Z,-5.85
2023-03-29T04:04:34.438Z,-5.75
2023-03-29T04:09:37.895Z,-5.65
2023-03-29T04:14:40.903Z,-5.59
2023-03-29T04:19:43.826Z,-5.54
2023-03-29T04:24:46.913Z,-5.52
2023-03-29T04:29:49.823Z,-5.49
2023-03-29T04:34:52.826Z,-5.23
2023-03-29T04:39:55.941Z,-4.34
2023-03-29T04:45:00.644Z,-2.80
2023-03-29T04:50:04.062Z,-52.13
2023-03-29T04:55:08.260Z,-128.00
2023-03-29T05:00:15.490Z,-128.00
2023-03-29T05:05:18.570Z,-75.51
2023-03-29T05:10:22.026Z,3.99
2023-03-29T05:15:24.920Z,4.95
2023-03-29T05:20:28.791Z,5.86
2023-03-29T05:25:32.012Z,6.76
2023-03-29T05:30:35.326Z,7.47
2023-03-29T05:35:38.362Z,8.24
2023-03-29T05:40:41.706Z,8.84
2023-03-29T05:45:44.855Z,9.54
2023-03-29T05:50:52.431Z,9.99
2023-03-29T05:55:57.010Z,10.36
2023-03-29T06:01:00.778Z,10.65
2023-03-29T06:06:04.544Z,10.94
2023-03-29T06:11:11.164Z,11.21
2023-03-29T06:16:15.176Z,11.39
2023-03-29T06:21:18.388Z,11.66
2023-03-29T06:26:21.396Z,11.75
2023-03-29T06:31:24.861Z,11.91
2023-03-29T06:36:27.826Z,11.97
2023-03-29T06:41:31.756Z,11.97
2023-03-29T06:46:35.244Z,11.95
2023-03-29T06:51:38.504Z,11.96
2023-03-29T06:56:41.630Z,12.18
2023-03-29T07:01:45.285Z,12.18
2023-03-29T07:06:51.365Z,12.23
2023-03-29T07:11:54.594Z,12.33
2023-03-29T07:17:01.601Z,12.35
2023-03-29T07:22:04.626Z,12.25
2023-03-29T07:27:08.947Z,12.32
2023-03-29T07:32:12.387Z,12.44
2023-03-29T07:37:15.573Z,12.61
2023-03-29T07:42:18.792Z,12.59
2023-03-29T07:47:23.710Z,12.39
2023-03-29T07:52:28.793Z,12.30
2023-03-29T07:57:32.081Z,12.23
2023-03-29T08:02:35.188Z,12.06
2023-03-29T08:07:40.214Z,12.13
2023-03-29T08:12:44.368Z,12.05
2023-03-29T08:17:47.414Z,11.86
2023-03-29T08:22:50.500Z,11.87
2023-03-29T08:27:53.769Z,11.64
2023-03-29T08:32:57.175Z,11.40
2023-03-29T08:38:00.267Z,11.22
2023-03-29T08:43:37.978Z,10.86
2023-03-29T08:48:54.307Z,9.73
2023-03-29T08:54:05.500Z,8.75
2023-03-29T08:59:23.048Z,8.05
2023-03-29T09:04:33.735Z,7.48
2023-03-29T09:09:37.875Z,7.07
2023-03-29T09:15:10.969Z,6.72
2023-03-29T09:20:59.607Z,6.53
2023-03-29T09:26:13.094Z,6.31
2023-03-29T09:31:23.126Z,6.19
2023-03-29T09:36:36.588Z,6.07
2023-03-29T09:41:46.854Z,5.91
2023-03-29T09:46:59.303Z,5.89
2023-03-29T09:52:09.039Z,5.94
2023-03-29T09:57:15.839Z,5.95
2023-03-29T10:02:21.372Z,6.04
2023-03-29T10:07:34.589Z,6.12
2023-03-29T10:12:37.917Z,6.26
2023-03-29T10:17:41.237Z,6.30
2023-03-29T10:22:56.822Z,6.39
2023-03-29T10:28:05.562Z,6.44
2023-03-29T10:33:19.214Z,6.50
2023-03-29T10:38:28.075Z,6.58
2023-03-29T10:43:39.788Z,6.67
2023-03-29T10:48:48.063Z,6.72
2023-03-29T10:53:51.312Z,6.87
2023-03-29T10:59:14.592Z,6.98
2023-03-29T11:04:28.559Z,7.06
2023-03-29T11:09:57.776Z,7.11
2023-03-29T11:15:08.054Z,7.23
2023-03-29T11:20:27.360Z,7.28
2023-03-29T11:25:47.519Z,7.25
2023-03-29T11:31:04.876Z,7.26
2023-03-29T11:36:25.319Z,7.32
2023-03-29T11:41:33.980Z,7.45
2023-03-29T11:46:43.139Z,7.55
2023-03-29T11:51:54.499Z,7.51
2023-03-29T11:57:05.975Z,7.54
2023-03-29T12:02:40.006Z,7.60
2023-03-29T12:07:51.200Z,7.73
2023-03-29T12:13:21.531Z,7.78
2023-03-29T12:18:30.840Z,7.86
2023-03-29T12:23:34.253Z,8.01
2023-03-29T12:28:37.366Z,8.10
2023-03-29T12:34:02.083Z,8.11
2023-03-29T12:39:05.619Z,8.05
2023-03-29T12:44:15.473Z,8.08
2023-03-29T12:49:25.705Z,8.20
2023-03-29T12:54:32.502Z,8.23
2023-03-29T12:59:39.854Z,8.27
2023-03-29T13:04:42.865Z,8.30
2023-03-29T13:09:53.559Z,8.28
2023-03-29T13:15:00.723Z,8.27
2023-03-29T13:20:22.089Z,8.35
2023-03-29T13:25:37.280Z,8.47
2023-03-29T13:30:57.818Z,8.50
2023-03-29T13:36:10.377Z,8.53
2023-03-29T13:41:39.338Z,8.54
2023-03-29T13:46:44.377Z,8.58
2023-03-29T13:51:53.643Z,8.60
2023-03-29T13:57:05.358Z,8.52
2023-03-29T14:02:21.433Z,8.45
2023-03-29T14:07:26.597Z,8.36
2023-03-29T14:12:36.674Z,8.22
2023-03-29T14:17:41.168Z,8.19
2023-03-29T14:22:44.559Z,8.07
2023-03-29T14:27:47.650Z,7.99
2023-03-29T14:32:51.730Z,8.01
2023-03-29T14:37:55.346Z,8.05
2023-03-29T14:43:02.507Z,8.11
2023-03-29T14:48:06.665Z,8.15
2023-03-29T14:53:18.249Z,8.22
2023-03-29T14:58:24.140Z,8.30
2023-03-29T15:03:27.796Z,8.35
2023-03-29T15:08:34.325Z,8.39
2023-03-29T15:13:42.168Z,8.21
2023-03-29T15:18:47.730Z,7.98
2023-03-29T15:23:55.800Z,7.72
2023-03-29T15:29:23.774Z,7.46
2023-03-29T15:34:29.564Z,7.24
2023-03-29T15:39:32.831Z,7.01
2023-03-29T15:44:38.794Z,6.81
2023-03-29T15:49:42.121Z,6.64
2023-03-29T15:54:45.236Z,6.50
2023-03-29T15:59:48.542Z,6.43
2023-03-29T16:04:52.167Z,6.35
2023-03-29T16:09:55.173Z,6.26
2023-03-29T16:14:58.190Z,6.16
2023-03-29T16:20:01.521Z,6.05
2023-03-29T16:25:11.859Z,5.94
2023-03-29T16:30:15.449Z,5.85
2023-03-29T16:35:27.199Z,5.77
2023-03-29T16:40:30.414Z,5.70
2023-03-29T16:45:33.414Z,5.64
2023-03-29T16:50:36.951Z,5.57
2023-03-29T16:55:40.550Z,5.49
2023-03-29T17:00:46.354Z,5.41
2023-03-29T17:05:53.134Z,5.32
2023-03-29T17:10:56.744Z,5.23
2023-03-29T17:15:59.892Z,5.13
2023-03-29T17:21:03.274Z,5.02
2023-03-29T17:26:07.281Z,4.91
2023-03-29T17:31:10.224Z,4.81
2023-03-29T17:36:13.542Z,4.72
2023-03-29T17:41:17.628Z,4.65
2023-03-29T17:46:23.034Z,4.59
2023-03-29T17:51:27.766Z,4.54
2023-03-29T17:56:31.276Z,4.47
2023-03-29T18:01:35.838Z,4.41
2023-03-29T18:06:40.056Z,4.37
2023-03-29T18:11:43.162Z,4.32
2023-03-29T18:16:47.015Z,4.29
2023-03-29T18:21:50.057Z,4.28
2023-03-29T18:26:53.552Z,4.25
2023-03-29T18:31:56.634Z,4.21
2023-03-29T18:36:59.944Z,4.18
2023-03-29T18:42:03.159Z,4.17
2023-03-29T18:47:07.338Z,4.16
2023-03-29T18:52:10.400Z,4.13
2023-03-29T18:57:13.676Z,4.09
2023-03-29T19:02:16.950Z,4.06
2023-03-29T19:07:22.186Z,4.04
2023-03-29T19:12:25.503Z,4.03
2023-03-29T19:17:28.713Z,4.04
2023-03-29T19:22:34.172Z,4.07
2023-03-29T19:27:37.276Z,4.09
2023-03-29T19:32:40.824Z,4.10
2023-03-29T19:37:44.098Z,4.10
2023-03-29T19:42:48.144Z,4.09
2023-03-29T19:48:02.628Z,4.06
2023-03-29T19:53:06.642Z,4.02
2023-03-29T19:58:09.745Z,3.96
2023-03-29T20:03:14.103Z,3.90
2023-03-29T20:08:17.400Z,3.82
2023-03-29T20:13:31.309Z,3.72
2023-03-29T20:18:38.589Z,3.62
2023-03-29T20:23:42.082Z,3.53
2023-03-29T20:28:45.908Z,3.43
2023-03-29T20:33:49.025Z,3.33
2023-03-29T20:38:52.623Z,3.25
2023-03-29T20:44:00.102Z,3.20
2023-03-29T20:49:08.996Z,3.18
2023-03-29T20:54:12.009Z,3.20
2023-03-29T20:59:15.418Z,3.23
2023-03-29T21:04:18.905Z,3.25
2023-03-29T21:09:23.611Z,3.26
2023-03-29T21:14:26.788Z,3.29
2023-03-29T21:19:30.006Z,3.32
2023-03-29T21:24:34.071Z,3.35
2023-03-29T21:29:37.199Z,3.40
2023-03-29T21:34:40.254Z,3.42
2023-03-29T21:39:43.468Z,3.47
2023-03-29T21:44:46.479Z,3.51
2023-03-29T21:49:49.610Z,3.55
2023-03-29T21:54:52.691Z,3.63
2023-03-29T21:59:57.032Z,3.72
2023-03-29T22:05:00.147Z,3.83
2023-03-29T22:10:05.802Z,3.92
2023-03-29T22:15:13.501Z,4.05
2023-03-29T22:20:18.590Z,4.22
2023-03-29T22:25:22.990Z,4.38
2023-03-29T22:30:25.919Z,4.49
2023-03-29T22:35:28.934Z,4.59
2023-03-29T22:40:33.469Z,4.69
2023-03-29T22:45:36.510Z,4.78
2023-03-29T22:50:43.023Z,4.86
2023-03-29T22:55:46.488Z,4.90
2023-03-29T23:00:50.487Z,4.93
2023-03-29T23:05:55.940Z,4.96
2023-03-29T23:10:59.684Z,4.96
2023-03-29T23:16:03.908Z,4.95
2023-03-29T23:21:09.089Z,4.95
2023-03-29T23:26:12.177Z,4.93
2023-03-29T23:31:19.800Z,4.90
2023-03-29T23:36:23.124Z,4.88
2023-03-29T23:41:28.409Z,4.84
2023-03-29T23:46:32.655Z,4.81
2023-03-29T23:51:36.952Z,4.76
2023-03-29T23:56:40.007Z,4.72
